Time;durP1;ratioP1;P1;durP2;ratioP2;P2;SDS_P1;SDS_P2;PMS_P1;PMS_P2;Temp;Humidity;BMP_temperature;BMP_pressure;BME280_temperature;BME280_humidity;BME280_pressure;Samples;Min_cycle;Max_cycle;Signal;HPM_P1;HPM_P2
2021/06/10 00:00:33;;;;;;;31.88;11.10;;;;;;;;;;5051067;28;20551;-89
2021/06/10 00:02:58;;;;;;;26.35;11.13;;;;;;;;;;5049351;28;20013;-89
2021/06/10 00:05:24;;;;;;;28.13;12.05;;;;;;;;;;5085157;28;20051;-89
2021/06/10 00:07:49;;;;;;;25.55;11.32;;;;;;;;;;5085027;28;20046;-89
2021/06/10 00:10:15;;;;;;;25.20;10.75;;;;;;;;;;5084627;28;20047;-89
2021/06/10 00:12:40;;;;;;;16.33;8.40;;;;;;;;;;5085044;28;20025;-89
2021/06/10 00:15:07;;;;;;;14.38;8.05;;;;;;;;;;5051310;28;20025;-89
2021/06/10 00:17:32;;;;;;;18.77;8.18;;;;;;;;;;5051443;28;20116;-89
2021/06/10 00:19:59;;;;;;;17.65;8.63;;;;;;;;;;5051125;28;20502;-89
2021/06/10 00:22:24;;;;;;;21.15;10.05;;;;;;;;;;5051199;28;20139;-89
2021/06/10 00:24:49;;;;;;;19.10;9.07;;;;;;;;;;5085075;28;20075;-89
2021/06/10 00:27:20;;;;;;;15.32;8.25;;;;;;;;;;5051359;28;20028;-89
2021/06/10 00:29:45;;;;;;;13.35;7.45;;;;;;;;;;5052434;28;20031;-89
2021/06/10 00:32:13;;;;;;;15.70;7.82;;;;;;;;;;5053679;28;20013;-89
2021/06/10 00:34:38;;;;;;;10.20;6.25;;;;;;;;;;5040284;28;20021;-89
2021/06/10 00:37:03;;;;;;;10.13;6.22;;;;;;;;;;5053758;28;20043;-89
2021/06/10 00:39:29;;;;;;;11.43;6.03;;;;;;;;;;5053583;28;20025;-89
2021/06/10 00:41:54;;;;;;;11.55;5.45;;;;;;;;;;5053713;28;20036;-90
2021/06/10 00:44:19;;;;;;;8.40;4.85;;;;;;;;;;5053501;28;20037;-89
2021/06/10 00:46:44;;;;;;;9.88;5.30;;;;;;;;;;5053135;28;20460;-89
2021/06/10 00:49:09;;;;;;;8.95;4.75;;;;;;;;;;5053490;28;20025;-89
2021/06/10 00:51:38;;;;;;;9.13;4.55;;;;;;;;;;5053670;28;20053;-89
2021/06/10 00:54:04;;;;;;;9.05;5.45;;;;;;;;;;5053260;28;20041;-89
2021/06/10 00:56:29;;;;;;;9.77;5.07;;;;;;;;;;5052742;28;20056;-89
2021/06/10 00:58:55;;;;;;;8.73;4.65;;;;;;;;;;5052920;28;20017;-89
2021/06/10 01:01:21;;;;;;;10.27;4.80;;;;;;;;;;5054766;28;20440;-89
2021/06/10 01:03:46;;;;;;;7.68;4.72;;;;;;;;;;5055179;28;20017;-90
2021/06/10 01:06:26;;;;;;;9.68;4.88;;;;;;;;;;5054994;28;20028;-89
2021/06/10 01:08:54;;;;;;;9.98;4.95;;;;;;;;;;5055106;28;20025;-89
2021/06/10 01:11:38;;;;;;;8.80;4.72;;;;;;;;;;5054427;28;20025;-89
2021/06/10 01:14:04;;;;;;;10.23;4.40;;;;;;;;;;5054796;28;20155;-89
2021/06/10 01:16:30;;;;;;;8.93;4.47;;;;;;;;;;5054506;28;20047;-89
2021/06/10 01:18:57;;;;;;;5.47;4.20;;;;;;;;;;5054550;28;20013;-89
2021/06/10 01:21:23;;;;;;;11.23;4.13;;;;;;;;;;5054597;28;20021;-89
2021/06/10 01:24:01;;;;;;;6.78;4.07;;;;;;;;;;5054107;28;20017;-89
2021/06/10 01:26:49;;;;;;;7.80;4.95;;;;;;;;;;5055252;28;20021;-89
2021/06/10 01:29:16;;;;;;;7.07;4.40;;;;;;;;;;5050893;28;20029;-89
2021/06/10 01:31:41;;;;;;;10.73;4.25;;;;;;;;;;5054380;28;20020;-89
2021/06/10 01:34:07;;;;;;;9.30;4.85;;;;;;;;;;5055451;28;20519;-89
2021/06/10 01:36:40;;;;;;;10.15;4.72;;;;;;;;;;5054265;28;20109;-89
2021/06/10 01:39:07;;;;;;;5.43;4.30;;;;;;;;;;5054082;28;20017;-90
2021/06/10 01:41:33;;;;;;;6.28;4.38;;;;;;;;;;5054152;28;20392;-89
2021/06/10 01:43:59;;;;;;;6.30;4.68;;;;;;;;;;5055069;28;20380;-89
2021/06/10 01:46:26;;;;;;;6.15;4.20;;;;;;;;;;5054211;28;20016;-89
2021/06/10 01:48:51;;;;;;;5.97;4.18;;;;;;;;;;5054249;28;20028;-89
2021/06/10 01:51:19;;;;;;;9.68;4.30;;;;;;;;;;5053626;28;20025;-89
2021/06/10 01:53:46;;;;;;;7.55;4.45;;;;;;;;;;5053577;28;20024;-89
2021/06/10 01:56:12;;;;;;;8.50;4.95;;;;;;;;;;5053262;28;20100;-89
2021/06/10 01:58:38;;;;;;;7.43;5.07;;;;;;;;;;5054074;28;20473;-89
2021/06/10 02:01:04;;;;;;;8.05;5.03;;;;;;;;;;5053361;28;20020;-89
2021/06/10 02:03:29;;;;;;;8.02;4.55;;;;;;;;;;5054834;28;20032;-89
2021/06/10 02:05:55;;;;;;;7.03;4.78;;;;;;;;;;5055102;28;20025;-89
2021/06/10 02:08:20;;;;;;;12.52;4.93;;;;;;;;;;5039339;28;20098;-88
2021/06/10 02:10:48;;;;;;;7.45;5.18;;;;;;;;;;5054868;28;20376;-89
2021/06/10 02:13:15;;;;;;;6.57;5.35;;;;;;;;;;5053626;28;20111;-89
2021/06/10 02:15:40;;;;;;;8.30;5.47;;;;;;;;;;5053421;28;20028;-89
2021/06/10 02:18:06;;;;;;;9.50;5.68;;;;;;;;;;5053201;28;20025;-89
2021/06/10 02:20:31;;;;;;;6.82;4.95;;;;;;;;;;5053115;28;20031;-89
2021/06/10 02:22:56;;;;;;;8.25;4.88;;;;;;;;;;5053358;28;20419;-89
2021/06/10 02:25:21;;;;;;;7.95;4.43;;;;;;;;;;5053092;28;20021;-89
2021/06/10 02:27:47;;;;;;;6.07;4.13;;;;;;;;;;5053176;28;20039;-89
2021/06/10 02:30:16;;;;;;;9.98;4.90;;;;;;;;;;5054367;28;20029;-90
2021/06/10 02:32:42;;;;;;;8.55;4.85;;;;;;;;;;5052945;28;20036;-89
2021/06/10 02:35:08;;;;;;;13.25;5.05;;;;;;;;;;5053159;28;20384;-89
2021/06/10 02:37:35;;;;;;;10.80;5.13;;;;;;;;;;5053165;28;20021;-90
2021/06/10 02:40:01;;;;;;;7.15;4.57;;;;;;;;;;5052654;28;20040;-89
2021/06/10 02:42:27;;;;;;;9.05;4.90;;;;;;;;;;5054079;28;20029;-89
2021/06/10 02:44:53;;;;;;;7.95;4.47;;;;;;;;;;5053226;28;20063;-89
2021/06/10 02:47:20;;;;;;;13.15;4.70;;;;;;;;;;5052817;28;20033;-89
2021/06/10 02:49:46;;;;;;;7.70;4.80;;;;;;;;;;5052800;28;20025;-89
2021/06/10 02:52:15;;;;;;;7.88;5.50;;;;;;;;;;5052907;28;20032;-89
2021/06/10 02:54:41;;;;;;;7.72;4.70;;;;;;;;;;5052597;28;20123;-89
2021/06/10 02:57:07;;;;;;;9.63;5.28;;;;;;;;;;5052448;28;20052;-89
2021/06/10 02:59:35;;;;;;;7.55;5.20;;;;;;;;;;5052862;28;20111;-89
2021/06/10 03:02:01;;;;;;;8.23;4.30;;;;;;;;;;5052766;28;20025;-89
2021/06/10 03:04:27;;;;;;;7.50;4.72;;;;;;;;;;5052512;28;20115;-89
2021/06/10 03:06:52;;;;;;;7.18;5.32;;;;;;;;;;5052393;28;20021;-89
2021/06/10 03:09:18;;;;;;;9.52;4.70;;;;;;;;;;5053442;28;20035;-89
2021/06/10 03:11:43;;;;;;;14.70;4.78;;;;;;;;;;5052317;28;20024;-90
2021/06/10 03:14:09;;;;;;;7.72;4.75;;;;;;;;;;5052873;28;20033;-90
2021/06/10 03:16:35;;;;;;;12.18;4.85;;;;;;;;;;5052490;28;20036;-89
2021/06/10 03:19:01;;;;;;;13.73;5.78;;;;;;;;;;5052152;28;20048;-89
2021/06/10 03:21:27;;;;;;;7.00;4.90;;;;;;;;;;5052461;28;20071;-89
2021/06/10 03:23:52;;;;;;;7.75;4.85;;;;;;;;;;5052323;28;20404;-89
2021/06/10 03:26:21;;;;;;;11.45;5.43;;;;;;;;;;5052301;28;20515;-89
2021/06/10 03:28:46;;;;;;;11.75;5.15;;;;;;;;;;5052506;28;20035;-89
2021/06/10 03:31:11;;;;;;;8.88;5.38;;;;;;;;;;5052230;28;20021;-89
2021/06/10 03:33:37;;;;;;;9.35;4.80;;;;;;;;;;5052279;28;20108;-87
2021/06/10 03:36:03;;;;;;;6.70;5.10;;;;;;;;;;5052264;28;20441;-89
2021/06/10 03:38:29;;;;;;;8.00;5.10;;;;;;;;;;5053178;28;20028;-90
2021/06/10 03:40:55;;;;;;;9.57;5.15;;;;;;;;;;5038082;28;20032;-89
2021/06/10 03:43:20;;;;;;;10.80;5.28;;;;;;;;;;5052196;28;20024;-89
2021/06/10 03:45:46;;;;;;;11.00;5.78;;;;;;;;;;5052207;28;20029;-89
2021/06/10 03:48:11;;;;;;;10.93;5.03;;;;;;;;;;5052383;28;20021;-89
2021/06/10 03:50:37;;;;;;;10.00;4.90;;;;;;;;;;5053201;28;20049;-90
2021/06/10 03:53:05;;;;;;;7.70;5.43;;;;;;;;;;5038001;28;20017;-89
2021/06/10 03:55:30;;;;;;;8.02;5.60;;;;;;;;;;5051548;28;20108;-89
2021/06/10 03:57:55;;;;;;;7.88;5.32;;;;;;;;;;5051891;28;20417;-89
2021/06/10 04:00:21;;;;;;;13.05;5.35;;;;;;;;;;5051864;28;20017;-89
2021/06/10 04:02:46;;;;;;;14.38;5.80;;;;;;;;;;5052005;28;20029;-90
2021/06/10 04:05:11;;;;;;;8.48;5.15;;;;;;;;;;5051706;28;20035;-89
2021/06/10 04:07:36;;;;;;;10.60;5.45;;;;;;;;;;5051744;28;20024;-90
2021/06/10 04:10:02;;;;;;;9.98;5.63;;;;;;;;;;5051322;28;20021;-89
2021/06/10 04:12:27;;;;;;;11.77;4.95;;;;;;;;;;5053102;28;20021;-89
2021/06/10 04:14:53;;;;;;;14.40;6.22;;;;;;;;;;5051794;28;20346;-89
2021/06/10 04:17:18;;;;;;;10.35;5.75;;;;;;;;;;5051830;28;20028;-90
2021/06/10 04:19:44;;;;;;;10.90;5.28;;;;;;;;;;5051701;28;20021;-89
2021/06/10 04:22:09;;;;;;;10.27;5.43;;;;;;;;;;5051628;28;20486;-88
2021/06/10 04:24:34;;;;;;;7.95;4.57;;;;;;;;;;5051780;28;20049;-89
2021/06/10 04:27:01;;;;;;;12.00;5.03;;;;;;;;;;5051710;28;20021;-89
2021/06/10 04:29:26;;;;;;;9.43;5.40;;;;;;;;;;5053166;28;20028;-89
2021/06/10 04:31:51;;;;;;;8.30;5.35;;;;;;;;;;5051873;28;20013;-90
2021/06/10 04:34:16;;;;;;;9.00;5.03;;;;;;;;;;5051485;28;20111;-89
2021/06/10 04:36:42;;;;;;;12.10;5.57;;;;;;;;;;5052834;28;20024;-89
2021/06/10 04:39:07;;;;;;;9.23;5.57;;;;;;;;;;5051039;28;20472;-89
2021/06/10 04:41:32;;;;;;;9.13;5.53;;;;;;;;;;5051800;28;20506;-89
2021/06/10 04:43:57;;;;;;;12.25;6.55;;;;;;;;;;5051568;28;20079;-89
2021/06/10 04:46:23;;;;;;;8.45;5.70;;;;;;;;;;5051782;28;20534;-89
2021/06/10 04:48:48;;;;;;;8.88;6.03;;;;;;;;;;5051562;28;20033;-89
2021/06/10 04:51:13;;;;;;;10.65;6.55;;;;;;;;;;5051242;28;20071;-89
2021/06/10 04:53:41;;;;;;;11.55;7.57;;;;;;;;;;5051296;28;20070;-90
2021/06/10 04:56:06;;;;;;;8.95;6.35;;;;;;;;;;5051316;28;20052;-89
2021/06/10 04:58:32;;;;;;;10.93;7.00;;;;;;;;;;5051816;28;20025;-90
2021/06/10 05:00:57;;;;;;;10.98;7.78;;;;;;;;;;5051388;28;20029;-90
2021/06/10 05:03:23;;;;;;;17.42;8.27;;;;;;;;;;5051458;28;20041;-90
2021/06/10 05:05:49;;;;;;;14.27;8.40;;;;;;;;;;5051659;28;20029;-89
2021/06/10 05:08:14;;;;;;;13.82;10.00;;;;;;;;;;5051417;28;20059;-90
2021/06/10 05:10:39;;;;;;;20.52;10.20;;;;;;;;;;5085007;28;20482;-90
2021/06/10 05:13:04;;;;;;;15.70;9.90;;;;;;;;;;5085138;28;20021;-90
2021/06/10 05:15:29;;;;;;;14.77;9.50;;;;;;;;;;5052488;28;20021;-90
2021/06/10 05:17:55;;;;;;;15.75;9.90;;;;;;;;;;5055197;28;20017;-89
2021/06/10 05:20:20;;;;;;;16.20;9.65;;;;;;;;;;5054794;28;20056;-89
2021/06/10 05:22:45;;;;;;;14.40;10.05;;;;;;;;;;5055003;28;20391;-90
2021/06/10 05:25:11;;;;;;;14.07;9.77;;;;;;;;;;5087417;28;20025;-88
2021/06/10 05:27:36;;;;;;;16.23;9.88;;;;;;;;;;5055182;28;20021;-90
2021/06/10 05:30:05;;;;;;;17.38;11.75;;;;;;;;;;5054906;28;20469;-90
2021/06/10 05:32:31;;;;;;;15.65;10.52;;;;;;;;;;5088138;28;20017;-90
2021/06/10 05:34:56;;;;;;;17.08;10.05;;;;;;;;;;5056202;28;20088;-90
2021/06/10 05:37:22;;;;;;;16.15;11.07;;;;;;;;;;5054741;28;20005;-89
2021/06/10 05:39:47;;;;;;;14.63;9.70;;;;;;;;;;5054939;28;20021;-90
2021/06/10 05:42:14;;;;;;;15.48;9.07;;;;;;;;;;5054275;28;20060;-89
2021/06/10 05:44:39;;;;;;;19.05;11.02;;;;;;;;;;5054347;28;20046;-89
2021/06/10 05:47:04;;;;;;;17.83;10.63;;;;;;;;;;5088098;28;20021;-90
2021/06/10 05:49:29;;;;;;;18.95;11.13;;;;;;;;;;5052115;28;20021;-90
2021/06/10 05:51:54;;;;;;;18.25;11.95;;;;;;;;;;5044549;28;20078;-90
2021/06/10 05:54:20;;;;;;;17.40;10.40;;;;;;;;;;5053934;28;20017;-90
2021/06/10 05:56:45;;;;;;;17.42;12.10;;;;;;;;;;5054220;28;20031;-90
2021/06/10 05:59:10;;;;;;;18.65;10.45;;;;;;;;;;5087774;28;20021;-90
2021/06/10 06:01:35;;;;;;;18.55;11.20;;;;;;;;;;5050699;28;20039;-90
2021/06/10 06:04:00;;;;;;;16.02;10.85;;;;;;;;;;5054020;28;20021;-90
2021/06/10 06:06:26;;;;;;;18.00;12.70;;;;;;;;;;5053871;28;20116;-90
2021/06/10 06:08:51;;;;;;;18.63;13.48;;;;;;;;;;5054783;28;20456;-91
2021/06/10 06:11:16;;;;;;;20.98;12.95;;;;;;;;;;5087216;28;20159;-90
2021/06/10 06:13:50;;;;;;;19.13;13.57;;;;;;;;;;5053874;28;20016;-91
2021/06/10 06:16:19;;;;;;;18.58;13.45;;;;;;;;;;5049371;28;20043;-90
2021/06/10 06:18:45;;;;;;;22.50;14.77;;;;;;;;;;5053158;28;20035;-91
2021/06/10 06:21:11;;;;;;;19.67;11.27;;;;;;;;;;5087553;28;20021;-90
2021/06/10 06:23:37;;;;;;;22.38;15.48;;;;;;;;;;5082478;28;20175;-90
2021/06/10 06:26:02;;;;;;;23.95;15.32;;;;;;;;;;5087046;28;20091;-91
2021/06/10 06:28:27;;;;;;;21.73;13.02;;;;;;;;;;5086649;28;20071;-90
2021/06/10 06:30:53;;;;;;;26.10;15.73;;;;;;;;;;5051473;28;20117;-91
2021/06/10 06:33:18;;;;;;;26.58;13.30;;;;;;;;;;5044933;28;20017;-90
2021/06/10 06:35:44;;;;;;;25.77;13.95;;;;;;;;;;5039062;28;20070;-91
2021/06/10 06:38:09;;;;;;;22.52;13.18;;;;;;;;;;5087102;28;20103;-90
2021/06/10 06:40:35;;;;;;;20.45;12.60;;;;;;;;;;5086610;28;20540;-90
2021/06/10 06:43:00;;;;;;;25.38;14.98;;;;;;;;;;5086459;28;20083;-91
2021/06/10 06:45:25;;;;;;;20.55;11.23;;;;;;;;;;5052833;28;20086;-90
2021/06/10 06:47:51;;;;;;;18.80;12.82;;;;;;;;;;5044013;28;20045;-91
2021/06/10 06:50:16;;;;;;;22.80;15.65;;;;;;;;;;5078458;28;20108;-90
2021/06/10 06:52:41;;;;;;;28.27;14.98;;;;;;;;;;5086792;28;20047;-89
2021/06/10 06:55:07;;;;;;;17.42;12.40;;;;;;;;;;5054671;28;20016;-92
2021/06/10 06:57:32;;;;;;;20.58;13.70;;;;;;;;;;5053730;28;20079;-92
2021/06/10 06:59:57;;;;;;;24.77;15.77;;;;;;;;;;5053374;28;20108;-92
2021/06/10 07:02:22;;;;;;;17.42;11.93;;;;;;;;;;5053553;28;20053;-92
2021/06/10 07:04:48;;;;;;;27.15;15.13;;;;;;;;;;5086829;28;20013;-92
2021/06/10 07:07:13;;;;;;;18.65;11.93;;;;;;;;;;5053767;28;20013;-92
2021/06/10 07:09:41;;;;;;;24.25;13.68;;;;;;;;;;5052998;28;20032;-91
2021/06/10 07:12:07;;;;;;;21.83;14.77;;;;;;;;;;5053007;28;20017;-92
2021/06/10 07:14:32;;;;;;;21.45;13.30;;;;;;;;;;5052501;28;20028;-92
2021/06/10 07:16:58;;;;;;;22.73;15.32;;;;;;;;;;5050285;28;20166;-91
2021/06/10 07:19:24;;;;;;;20.45;12.02;;;;;;;;;;5053267;28;20499;-91
2021/06/10 07:21:50;;;;;;;29.83;13.82;;;;;;;;;;5086137;28;20025;-92
2021/06/10 07:24:15;;;;;;;26.15;15.38;;;;;;;;;;5053199;28;20024;-91
2021/06/10 07:26:43;;;;;;;21.55;15.45;;;;;;;;;;5053052;28;20460;-91
2021/06/10 07:29:09;;;;;;;21.90;15.05;;;;;;;;;;5052793;28;20035;-92
2021/06/10 07:31:34;;;;;;;19.38;12.95;;;;;;;;;;5052864;28;20116;-91
2021/06/10 07:34:02;;;;;;;19.20;12.43;;;;;;;;;;5086690;28;20444;-91
2021/06/10 07:36:27;;;;;;;23.00;15.55;;;;;;;;;;5086767;28;20049;-92
2021/06/10 07:38:53;;;;;;;19.45;11.80;;;;;;;;;;5087248;28;20052;-91
2021/06/10 07:41:18;;;;;;;22.63;14.02;;;;;;;;;;5065616;28;20028;-91
2021/06/10 07:43:43;;;;;;;29.73;14.18;;;;;;;;;;5054015;28;20029;-92
2021/06/10 07:46:08;;;;;;;24.17;13.30;;;;;;;;;;5086288;28;20032;-91
2021/06/10 07:48:33;;;;;;;27.20;14.18;;;;;;;;;;5052952;28;20025;-93
2021/06/10 07:50:59;;;;;;;28.33;15.48;;;;;;;;;;5086461;28;20047;-92
2021/06/10 07:53:24;;;;;;;23.77;15.77;;;;;;;;;;5086546;28;20028;-92
2021/06/10 07:55:55;;;;;;;23.55;15.25;;;;;;;;;;5052826;28;20403;-92
2021/06/10 07:58:20;;;;;;;24.45;15.50;;;;;;;;;;5052976;28;20032;-92
2021/06/10 08:00:46;;;;;;;27.38;16.27;;;;;;;;;;5052611;28;20037;-92
2021/06/10 08:03:11;;;;;;;26.80;15.68;;;;;;;;;;5053153;28;20092;-93
2021/06/10 08:05:36;;;;;;;21.90;13.05;;;;;;;;;;5085772;28;20027;-92
2021/06/10 08:08:02;;;;;;;20.33;13.13;;;;;;;;;;5052850;28;20013;-92
2021/06/10 08:10:28;;;;;;;19.88;12.43;;;;;;;;;;5083580;28;20163;-90
2021/06/10 08:12:54;;;;;;;22.70;15.10;;;;;;;;;;5084795;28;20017;-92
2021/06/10 08:15:19;;;;;;;20.33;14.30;;;;;;;;;;5045756;28;20087;-92
2021/06/10 08:17:44;;;;;;;23.73;13.88;;;;;;;;;;5081680;28;20021;-92
2021/06/10 08:20:12;;;;;;;25.92;12.80;;;;;;;;;;5050434;28;20032;-92
2021/06/10 08:22:37;;;;;;;17.92;12.20;;;;;;;;;;5041763;28;20384;-92
2021/06/10 08:25:02;;;;;;;21.50;14.15;;;;;;;;;;5051758;28;20032;-92
2021/06/10 08:27:28;;;;;;;26.63;13.27;;;;;;;;;;5052947;28;20024;-92
2021/06/10 08:29:53;;;;;;;22.77;11.52;;;;;;;;;;5050248;28;20021;-91
2021/06/10 08:32:18;;;;;;;22.15;12.05;;;;;;;;;;5052138;28;20017;-89
2021/06/10 08:34:43;;;;;;;17.85;12.57;;;;;;;;;;5085042;28;20484;-90
2021/06/10 08:37:08;;;;;;;16.45;11.25;;;;;;;;;;5051606;28;20098;-91
2021/06/10 08:39:34;;;;;;;19.42;11.65;;;;;;;;;;5082511;28;21519;-91
2021/06/10 08:41:59;;;;;;;23.33;11.23;;;;;;;;;;5049577;28;20025;-91
2021/06/10 08:44:24;;;;;;;14.07;10.10;;;;;;;;;;5050367;28;20361;-89
2021/06/10 08:46:50;;;;;;;13.73;9.65;;;;;;;;;;5050713;28;20049;-86
2021/06/10 08:49:15;;;;;;;17.20;10.23;;;;;;;;;;5049995;28;20358;-87
2021/06/10 08:51:40;;;;;;;15.20;9.85;;;;;;;;;;5076574;28;20029;-85
2021/06/10 08:54:06;;;;;;;11.05;8.50;;;;;;;;;;5049158;28;20044;-85
2021/06/10 08:56:32;;;;;;;18.80;7.82;;;;;;;;;;5056239;28;20048;-86
2021/06/10 08:58:58;;;;;;;10.48;7.68;;;;;;;;;;5054958;28;20028;-86
2021/06/10 09:01:23;;;;;;;12.55;8.05;;;;;;;;;;5054686;28;20021;-85
2021/06/10 09:03:49;;;;;;;9.50;6.40;;;;;;;;;;5055237;28;20025;-86
2021/06/10 09:06:16;;;;;;;14.52;7.40;;;;;;;;;;5051749;28;20033;-86
2021/06/10 09:08:42;;;;;;;11.38;7.68;;;;;;;;;;5042922;28;20070;-86
2021/06/10 09:11:12;;;;;;;12.75;6.63;;;;;;;;;;5053717;28;20100;-86
2021/06/10 09:13:39;;;;;;;11.70;6.45;;;;;;;;;;5054354;28;20028;-86
2021/06/10 09:16:24;;;;;;;8.93;6.95;;;;;;;;;;5053757;28;20013;-86
2021/06/10 09:19:00;;;;;;;19.00;6.95;;;;;;;;;;5053384;28;20115;-86
2021/06/10 09:21:27;;;;;;;9.60;7.03;;;;;;;;;;5053908;28;20063;-86
2021/06/10 09:23:53;;;;;;;13.38;6.18;;;;;;;;;;5054231;28;20013;-86
2021/06/10 09:26:18;;;;;;;9.50;5.60;;;;;;;;;;5054214;28;20035;-86
2021/06/10 09:28:45;;;;;;;10.02;5.63;;;;;;;;;;5053514;28;20025;-86
2021/06/10 09:31:11;;;;;;;8.85;5.38;;;;;;;;;;5053694;28;20104;-86
2021/06/10 09:33:40;;;;;;;8.98;5.18;;;;;;;;;;5053809;28;20496;-86
2021/06/10 09:36:06;;;;;;;7.65;4.80;;;;;;;;;;5054089;28;20009;-86
2021/06/10 09:38:31;;;;;;;9.05;4.22;;;;;;;;;;5053846;28;20476;-86
2021/06/10 09:41:04;;;;;;;6.90;4.30;;;;;;;;;;5045122;28;20044;-86
2021/06/10 09:43:46;;;;;;;7.43;3.78;;;;;;;;;;5070449;28;20043;-86
2021/06/10 09:46:11;;;;;;;;;;;;;;;;;;5055004;28;20024;-86
2021/06/10 09:48:36;;;;;;;3.10;2.17;;;;;;;;;;5053348;28;20352;-86
2021/06/10 09:51:02;;;;;;;4.32;2.85;;;;;;;;;;5053229;28;20071;-86
2021/06/10 09:53:29;;;;;;;9.02;3.60;;;;;;;;;;5052048;28;20491;-86
2021/06/10 09:56:04;;;;;;;8.50;4.68;;;;;;;;;;5053773;28;20028;-86
2021/06/10 09:58:32;;;;;;;7.15;2.80;;;;;;;;;;5053734;28;20056;-86
2021/06/10 10:00:57;;;;;;;3.25;2.78;;;;;;;;;;5052739;28;20029;-86
2021/06/10 10:03:22;;;;;;;9.65;3.08;;;;;;;;;;5053188;28;20100;-86
2021/06/10 10:05:48;;;;;;;5.00;3.30;;;;;;;;;;5053201;28;20070;-86
2021/06/10 10:08:15;;;;;;;4.72;2.88;;;;;;;;;;5052654;28;20258;-86
2021/06/10 10:10:40;;;;;;;6.80;3.53;;;;;;;;;;5054188;28;20052;-86
2021/06/10 10:13:09;;;;;;;10.40;4.63;;;;;;;;;;5054176;28;20056;-86
2021/06/10 10:15:34;;;;;;;8.43;3.33;;;;;;;;;;5038403;28;20404;-86
2021/06/10 10:17:59;;;;;;;7.60;3.83;;;;;;;;;;5052435;28;20025;-86
2021/06/10 10:20:25;;;;;;;11.10;4.80;;;;;;;;;;5052567;28;20024;-86
2021/06/10 10:22:50;;;;;;;8.80;4.18;;;;;;;;;;5052762;28;20096;-86
2021/06/10 10:25:15;;;;;;;14.60;4.28;;;;;;;;;;5052691;28;20032;-87
2021/06/10 10:27:41;;;;;;;12.40;4.82;;;;;;;;;;5052876;28;20480;-87
2021/06/10 10:30:08;;;;;;;5.72;4.03;;;;;;;;;;5052419;28;20025;-86
2021/06/10 10:32:35;;;;;;;8.07;3.97;;;;;;;;;;5052454;28;20102;-86
2021/06/10 10:35:20;;;;;;;5.72;3.00;;;;;;;;;;5052988;28;20017;-86
2021/06/10 10:37:45;;;;;;;12.30;3.00;;;;;;;;;;5048180;28;20112;-86
2021/06/10 10:40:18;;;;;;;5.60;1.98;;;;;;;;;;5041153;28;20048;-86
2021/06/10 10:42:44;;;;;;;10.57;2.33;;;;;;;;;;5051139;28;20021;-86
2021/06/10 10:45:10;;;;;;;9.55;1.40;;;;;;;;;;5052542;28;20048;-87
2021/06/10 10:47:43;;;;;;;2.63;1.10;;;;;;;;;;5052023;28;20047;-86
2021/06/10 10:50:08;;;;;;;3.97;1.35;;;;;;;;;;5053846;28;20530;-87
2021/06/10 10:52:38;;;;;;;2.80;1.13;;;;;;;;;;5050149;28;20021;-86
2021/06/10 10:55:33;;;;;;;3.97;0.90;;;;;;;;;;5051370;28;20032;-86
2021/06/10 10:57:58;;;;;;;5.43;0.90;;;;;;;;;;5047843;28;20029;-86
2021/06/10 11:00:44;;;;;;;3.47;0.85;;;;;;;;;;5051870;28;20075;-87
2021/06/10 11:03:19;;;;;;;7.47;1.23;;;;;;;;;;5047999;28;20025;-87
2021/06/10 11:05:45;;;;;;;4.72;0.88;;;;;;;;;;5051296;28;20020;-86
2021/06/10 11:08:10;;;;;;;5.05;1.08;;;;;;;;;;5051389;28;20108;-87
2021/06/10 11:10:52;;;;;;;1.90;0.90;;;;;;;;;;5050875;28;20526;-86
2021/06/10 11:13:20;;;;;;;4.60;0.80;;;;;;;;;;5050770;28;20455;-86
2021/06/10 11:15:46;;;;;;;6.43;1.15;;;;;;;;;;5048616;28;20048;-86
2021/06/10 11:18:12;;;;;;;2.55;0.90;;;;;;;;;;5051484;28;20060;-86
2021/06/10 11:20:37;;;;;;;5.65;1.20;;;;;;;;;;5051188;28;20071;-87
2021/06/10 11:23:19;;;;;;;3.27;0.90;;;;;;;;;;5048048;28;20029;-87
2021/06/10 11:25:44;;;;;;;4.07;0.98;;;;;;;;;;5050432;28;20273;-85
2021/06/10 11:28:10;;;;;;;3.13;0.88;;;;;;;;;;5050536;28;20063;-86
2021/06/10 11:30:37;;;;;;;6.15;1.17;;;;;;;;;;5038471;28;20108;-86
2021/06/10 11:33:10;;;;;;;3.53;0.90;;;;;;;;;;5050685;28;20028;-86
2021/06/10 11:35:38;;;;;;;2.33;1.15;;;;;;;;;;5049952;28;20054;-85
2021/06/10 11:38:09;;;;;;;1.73;0.90;;;;;;;;;;5054512;28;20358;-86
2021/06/10 11:40:35;;;;;;;5.13;1.00;;;;;;;;;;5051240;28;20441;-85
2021/06/10 11:43:04;;;;;;;1.73;1.00;;;;;;;;;;5044831;28;20023;-86
2021/06/10 11:45:29;;;;;;;2.45;0.95;;;;;;;;;;5050623;28;20436;-86
2021/06/10 11:47:54;;;;;;;5.40;1.15;;;;;;;;;;5050496;28;20048;-86
2021/06/10 11:50:24;;;;;;;2.70;0.88;;;;;;;;;;5051994;28;20380;-86
2021/06/10 11:52:59;;;;;;;2.50;1.00;;;;;;;;;;5050361;28;20020;-86
2021/06/10 11:55:29;;;;;;;3.53;0.98;;;;;;;;;;5048747;28;20021;-86
2021/06/10 11:57:55;;;;;;;4.70;1.02;;;;;;;;;;5036629;28;20021;-86
2021/06/10 12:00:25;;;;;;;1.95;1.05;;;;;;;;;;5050815;28;20059;-86
2021/06/10 12:02:54;;;;;;;5.50;1.13;;;;;;;;;;5050595;28;20357;-86
2021/06/10 12:05:20;;;;;;;3.13;1.10;;;;;;;;;;5051248;28;20094;-86
2021/06/10 12:07:46;;;;;;;4.28;1.30;;;;;;;;;;5050525;28;20029;-86
2021/06/10 12:10:19;;;;;;;2.58;1.63;;;;;;;;;;5050701;28;20017;-86
2021/06/10 12:12:46;;;;;;;4.82;1.63;;;;;;;;;;5047646;28;20017;-85
2021/06/10 12:15:17;;;;;;;5.20;1.67;;;;;;;;;;5051748;28;20025;-86
2021/06/10 12:17:56;;;;;;;3.83;0.90;;;;;;;;;;5050556;28;20017;-86
2021/06/10 12:20:22;;;;;;;3.30;1.30;;;;;;;;;;5049669;28;20262;-85
2021/06/10 12:22:48;;;;;;;3.50;1.30;;;;;;;;;;5043318;28;20032;-85
2021/06/10 12:25:18;;;;;;;7.75;1.25;;;;;;;;;;5051827;28;20380;-86
2021/06/10 12:27:43;;;;;;;4.90;1.38;;;;;;;;;;5052100;28;20382;-85
2021/06/10 12:30:21;;;;;;;2.80;1.17;;;;;;;;;;5046486;28;20024;-86
2021/06/10 12:32:46;;;;;;;7.70;1.30;;;;;;;;;;5052722;28;20025;-85
2021/06/10 12:35:11;;;;;;;6.00;1.25;;;;;;;;;;5051934;28;20032;-86
2021/06/10 12:37:37;;;;;;;4.13;1.40;;;;;;;;;;5043815;28;20044;-86
2021/06/10 12:40:02;;;;;;;5.40;1.10;;;;;;;;;;5044777;28;20094;-85
2021/06/10 12:42:27;;;;;;;8.02;1.40;;;;;;;;;;5048563;28;20075;-86
2021/06/10 12:44:52;;;;;;;3.42;1.00;;;;;;;;;;5051107;28;20120;-86
2021/06/10 12:47:29;;;;;;;5.07;1.55;;;;;;;;;;5048151;28;20020;-85
2021/06/10 12:49:54;;;;;;;1.92;1.17;;;;;;;;;;5054397;28;20040;-85
2021/06/10 12:52:27;;;;;;;3.95;1.58;;;;;;;;;;5054410;28;20056;-84
2021/06/10 12:55:04;;;;;;;3.63;1.50;;;;;;;;;;5047849;28;20013;-85
2021/06/10 12:57:30;;;;;;;2.28;1.35;;;;;;;;;;5053559;28;20112;-85
2021/06/10 12:59:56;;;;;;;1.83;1.20;;;;;;;;;;5054173;28;20460;-85
2021/06/10 13:02:22;;;;;;;2.83;1.30;;;;;;;;;;5054903;28;20078;-85
2021/06/10 13:04:49;;;;;;;5.43;1.55;;;;;;;;;;5055262;28;20017;-85
2021/06/10 13:07:27;;;;;;;4.43;1.33;;;;;;;;;;5044897;28;20422;-85
2021/06/10 13:09:54;;;;;;;6.25;1.75;;;;;;;;;;5052672;28;20134;-85
2021/06/10 13:12:23;;;;;;;5.95;2.50;;;;;;;;;;5053489;28;20107;-84
2021/06/10 13:15:04;;;;;;;5.05;2.20;;;;;;;;;;5051925;28;20028;-84
2021/06/10 13:17:48;;;;;;;9.20;2.35;;;;;;;;;;5052061;28;20021;-84
2021/06/10 13:20:13;;;;;;;7.30;2.38;;;;;;;;;;5055198;28;20025;-84
2021/06/10 13:22:38;;;;;;;3.78;2.03;;;;;;;;;;5054207;28;20498;-84
2021/06/10 13:25:08;;;;;;;2.80;2.30;;;;;;;;;;5040562;28;20457;-84
2021/06/10 13:27:33;;;;;;;6.90;2.25;;;;;;;;;;5052020;28;20021;-85
2021/06/10 13:30:00;;;;;;;6.47;2.25;;;;;;;;;;5053294;28;20025;-85
2021/06/10 13:32:27;;;;;;;5.70;2.40;;;;;;;;;;5053514;28;20025;-85
2021/06/10 13:37:30;;;;;;;10.90;2.55;;;;;;;;;;5054202;28;20028;-85
2021/06/10 13:39:55;;;;;;;5.00;2.50;;;;;;;;;;5053885;28;20025;-85
2021/06/10 13:42:20;;;;;;;6.63;2.17;;;;;;;;;;5051839;28;20029;-85
2021/06/10 13:44:46;;;;;;;4.32;2.38;;;;;;;;;;5045456;28;20029;-85
2021/06/10 13:47:11;;;;;;;7.38;2.33;;;;;;;;;;5052983;28;20017;-85
2021/06/10 13:49:36;;;;;;;4.50;1.88;;;;;;;;;;5042109;28;20108;-85
2021/06/10 13:52:02;;;;;;;8.43;2.55;;;;;;;;;;5054670;28;20093;-84
2021/06/10 13:54:28;;;;;;;3.65;1.80;;;;;;;;;;5052844;28;20414;-84
2021/06/10 13:56:54;;;;;;;1.98;1.63;;;;;;;;;;5053625;28;20128;-85
2021/06/10 13:59:19;;;;;;;6.85;2.00;;;;;;;;;;5054129;28;20120;-84
2021/06/10 14:01:45;;;;;;;6.75;1.75;;;;;;;;;;5035979;28;20029;-85
2021/06/10 14:04:10;;;;;;;3.55;2.10;;;;;;;;;;5047251;28;20021;-85
2021/06/10 14:06:36;;;;;;;3.35;2.00;;;;;;;;;;5052961;28;20111;-84
2021/06/10 14:09:01;;;;;;;5.38;2.40;;;;;;;;;;5053303;28;20116;-85
2021/06/10 14:11:26;;;;;;;7.80;2.65;;;;;;;;;;5053197;28;20028;-85
2021/06/10 14:13:53;;;;;;;4.68;2.35;;;;;;;;;;5053043;28;20020;-84
2021/06/10 14:16:18;;;;;;;5.72;2.35;;;;;;;;;;5052494;28;20024;-85
2021/06/10 14:18:45;;;;;;;7.90;2.28;;;;;;;;;;5052918;28;20378;-85
2021/06/10 14:21:10;;;;;;;6.05;2.38;;;;;;;;;;5053008;28;20159;-85
2021/06/10 14:23:35;;;;;;;8.77;2.42;;;;;;;;;;5053712;28;20482;-85
2021/06/10 14:26:01;;;;;;;7.25;2.22;;;;;;;;;;5052534;28;20119;-84
2021/06/10 14:28:26;;;;;;;5.32;1.75;;;;;;;;;;5052657;28;20143;-85
2021/06/10 14:33:38;;;;;;;11.65;2.20;;;;;;;;;;5042903;28;20104;-85
2021/06/10 14:36:03;;;;;;;4.55;2.03;;;;;;;;;;5052828;28;20013;-84